»·PEaware :: N24SG KCMA-KTOA

N24SG :: KCMA-KTOA

FLIGHT INFORMATION

Flight Status: Arrived
Operator: Privately registered:
United States
More flights under this callsign
Pilot: Sander O. (16958)
Aircraft: CESSNA 208 CARAVAN
(C208)
More flights by this aircraft type
Origin: KCMA Camarillo
United States
Destination: KTOA Zamperini
United States
More flights between these airports :: More routes between these airports
Route: +VTU044 GINNA V326 VNY V186 ADAMM V394 SLI
File this flight plan on PilotEdge
Remarks:
Altitude:
(Current/Filed)
7,000ft
Speed:
(Current/Filed)
0kts
Departed: 28-Dec-17 03:09 PM
Arrived: 28-Dec-17 03:59 PM
Distance/Time
Traveled:
45nm/0:50
Distance/Time
To Go:
Arrived

Flight Plot

Page will automatically refresh every two minutes.


Map Options




Map Legend


Flown Route
Filed Route
Departure Airport
Arrival Airport
Navaid (VOR, NDB)
Fix

Horizontal Profiles

Position Reports

Time Latitude Longitude Heading Altitude Ground
Speed
28-Dec-17 14:58 34.210655 -119.088865 359 82ft 0kts
28-Dec-17 14:59 34.210655 -119.088865 359 82ft 0kts
28-Dec-17 15:00 34.210655 -119.088865 359 82ft 0kts
28-Dec-17 15:01 34.210655 -119.088865 359 82ft 0kts
28-Dec-17 15:02 34.210655 -119.088865 359 82ft 0kts
28-Dec-17 15:03 34.210655 -119.088865 359 82ft 0kts
28-Dec-17 15:04 34.210655 -119.088865 359 82ft 0kts
28-Dec-17 15:05 34.210655 -119.088865 359 82ft 0kts
28-Dec-17 15:06 34.210655 -119.088865 359 82ft 0kts
28-Dec-17 15:07 34.210655 -119.088865 359 82ft 0kts
28-Dec-17 15:08 34.210655 -119.088865 359 82ft 0kts
28-Dec-17 15:09 34.210655 -119.088865 359 82ft 0kts
28-Dec-17 15:10 34.210655 -119.088865 359 82ft 0kts
28-Dec-17 15:11 34.210665 -119.088865 1 82ft 1kts
28-Dec-17 15:12 34.211465 -119.084603 358 82ft 12kts
28-Dec-17 15:13 34.212875 -119.084604 358 82ft 0kts
28-Dec-17 15:14 34.212875 -119.084604 358 82ft 0kts
28-Dec-17 15:15 34.213697 -119.086698 270 82ft 60kts
28-Dec-17 15:16 34.219077 -119.121987 286 1785ft 129kts
28-Dec-17 15:17 34.230447 -119.165376 286 3790ft 139kts
28-Dec-17 15:18 34.243627 -119.217440 287 3979ft 170kts
28-Dec-17 15:19 34.274291 -119.216105 83 4503ft 178kts
28-Dec-17 15:20 34.271291 -119.156152 93 4977ft 183kts
28-Dec-17 15:21 34.267032 -119.094887 94 4974ft 182kts
28-Dec-17 15:22 34.262860 -119.035160 94 4972ft 179kts
28-Dec-17 15:23 34.258636 -118.975221 94 4972ft 179kts
28-Dec-17 15:24 34.254461 -118.916350 94 5018ft 178kts
28-Dec-17 15:25 34.250212 -118.856852 94 5018ft 179kts
28-Dec-17 15:26 34.245912 -118.797085 94 5018ft 179kts
28-Dec-17 15:27 34.241618 -118.737878 94 5018ft 178kts
28-Dec-17 15:28 34.237327 -118.678956 94 5018ft 177kts
28-Dec-17 15:29 34.233078 -118.620966 94 5018ft 176kts
28-Dec-17 15:30 34.228850 -118.563667 94 5018ft 175kts
28-Dec-17 15:31 34.224788 -118.509066 94 5018ft 175kts
28-Dec-17 15:32 34.212579 -118.455457 109 5018ft 175kts
28-Dec-17 15:33 34.196777 -118.403436 109 5018ft 175kts
28-Dec-17 15:34 34.181043 -118.351620 109 5018ft 175kts
28-Dec-17 15:35 34.165189 -118.299498 109 5018ft 175kts
28-Dec-17 15:36 34.149727 -118.248326 109 5018ft 174kts
28-Dec-17 15:37 34.134840 -118.199522 115 5018ft 174kts
28-Dec-17 15:38 34.116232 -118.150305 112 5018ft 172kts
28-Dec-17 15:39 34.101121 -118.108156 111 5018ft 172kts
28-Dec-17 15:40 34.082088 -118.049200 111 5021ft 171kts
28-Dec-17 15:41 34.065324 -117.997185 110 5027ft 172kts
28-Dec-17 15:42 34.051275 -117.953627 110 5030ft 173kts
28-Dec-17 15:43 34.031023 -117.890965 110 5032ft 174kts
28-Dec-17 15:44 34.013444 -117.836810 114 5031ft 175kts
28-Dec-17 15:45 33.977265 -117.833287 198 4500ft 178kts
28-Dec-17 15:46 33.931048 -117.845776 181 4006ft 170kts
28-Dec-17 15:47 33.877772 -117.848033 181 4001ft 166kts
28-Dec-17 15:48 33.839428 -117.849636 181 4004ft 165kts
28-Dec-17 15:49 33.794057 -117.851509 181 4006ft 165kts
28-Dec-17 15:50 33.748834 -117.853385 181 4008ft 166kts
28-Dec-17 15:51 33.702660 -117.855284 181 4008ft 166kts
28-Dec-17 15:52 33.666981 -117.875320 272 4009ft 164kts
28-Dec-17 15:53 33.674582 -117.928892 281 3825ft 162kts
28-Dec-17 15:54 33.681984 -117.977642 280 3044ft 143kts
28-Dec-17 15:55 33.689066 -118.024881 280 3001ft 141kts
28-Dec-17 15:56 33.696013 -118.070962 280 3000ft 139kts
28-Dec-17 15:57 33.702605 -118.113678 281 2493ft 122kts
28-Dec-17 15:58 33.708839 -118.152849 281 2005ft 116kts
28-Dec-17 15:59 33.714816 -118.189789 281 2007ft 113kts
28-Dec-17 16:00 33.726349 -118.224700 308 2009ft 114kts
28-Dec-17 16:01 33.745009 -118.250840 307 2011ft 97kts
28-Dec-17 16:02 33.761102 -118.275001 306 1529ft 90kts
28-Dec-17 16:03 33.776937 -118.298813 306 972ft 91kts
28-Dec-17 16:04 33.792354 -118.322028 306 434ft 83kts
28-Dec-17 16:05 33.804707 -118.340661 309 108ft 33kts
28-Dec-17 16:06 33.805946 -118.344074 286 108ft 0kts
28-Dec-17 16:07 33.805413 -118.345487 191 108ft 7kts
28-Dec-17 16:08 33.802780 -118.342437 220 108ft 6kts
28-Dec-17 16:09 33.801895 -118.341863 38 108ft 0kts

Navigation Log

Ident Type
1. KCMA Airport
2. GINNA Fix
3. SUANA Fix
4. CANOG Fix
5. VNY Navaid
6. DARTS Fix
7. PURMS Fix
8. ELMOO Fix
9. ITSME Fix
10. PIRRO Fix
11. ADAMM Fix
12. POWUP Fix
13. AHEIM Fix
14. SLI Navaid
15. KTOA Airport